createdAt,value
2023-05-25T00:00:57.566Z,63.60
2023-05-25T00:03:32.348Z,63.60
2023-05-25T00:06:02.753Z,63.60
2023-05-25T00:08:36.836Z,63.70
2023-05-25T00:11:11.856Z,63.60
2023-05-25T00:13:49.388Z,63.60
2023-05-25T00:16:20.337Z,63.60
2023-05-25T00:18:56.307Z,63.60
2023-05-25T00:21:29.184Z,63.80
2023-05-25T00:24:00.922Z,63.80
2023-05-25T00:26:30.079Z,63.90
2023-05-25T00:29:04.799Z,63.90
2023-05-25T00:31:39.038Z,64.00
2023-05-25T00:34:10.553Z,64.10
2023-05-25T00:36:47.211Z,64.10
2023-05-25T00:39:30.049Z,64.10
2023-05-25T00:42:06.647Z,64.10
2023-05-25T00:44:52.330Z,64.20
2023-05-25T00:47:30.781Z,64.30
2023-05-25T00:50:08.207Z,64.30
2023-05-25T00:52:39.427Z,64.40
2023-05-25T00:55:18.548Z,64.60
2023-05-25T00:58:02.129Z,64.70
2023-05-25T01:00:41.386Z,64.70
2023-05-25T01:03:28.846Z,64.70
2023-05-25T01:06:05.050Z,64.60
2023-05-25T01:08:36.946Z,64.80
2023-05-25T01:11:13.997Z,64.80
2023-05-25T01:13:44.894Z,64.90
2023-05-25T01:16:24.261Z,64.80
2023-05-25T01:18:59.064Z,64.80
2023-05-25T01:21:44.595Z,64.80
2023-05-25T01:24:30.270Z,64.90
2023-05-25T01:27:08.034Z,64.90
2023-05-25T01:29:49.455Z,64.90
2023-05-25T01:32:23.579Z,64.90
2023-05-25T01:34:59.221Z,65.00
2023-05-25T01:37:42.619Z,65.00
2023-05-25T01:40:13.813Z,65.00
2023-05-25T01:42:51.678Z,64.90
2023-05-25T01:45:23.386Z,65.00
2023-05-25T01:48:01.326Z,65.10
2023-05-25T01:50:43.097Z,65.20
2023-05-25T01:53:24.853Z,65.20
2023-05-25T01:56:04.185Z,65.20
2023-05-25T01:58:39.824Z,65.20
2023-05-25T02:01:15.972Z,65.30
2023-05-25T02:03:52.682Z,65.30
2023-05-25T02:06:33.256Z,65.30
2023-05-25T02:09:22.360Z,65.30
2023-05-25T02:11:58.457Z,65.20
2023-05-25T02:14:32.524Z,65.30
2023-05-25T02:17:05.438Z,65.30
2023-05-25T02:19:39.355Z,65.40
2023-05-25T02:22:07.742Z,65.50
2023-05-25T02:24:56.428Z,65.50
2023-05-25T02:27:28.335Z,65.50
2023-05-25T02:30:07.296Z,65.50
2023-05-25T02:32:43.422Z,65.50
2023-05-25T02:35:21.422Z,65.60
2023-05-25T02:37:55.153Z,65.60
2023-05-25T02:40:40.521Z,65.60
2023-05-25T02:43:22.252Z,65.70
2023-05-25T02:45:57.546Z,65.70
2023-05-25T02:48:26.632Z,65.70
2023-05-25T02:50:59.377Z,65.70
2023-05-25T02:53:38.058Z,65.70
2023-05-25T02:56:14.069Z,65.80
2023-05-25T02:58:44.842Z,65.70
2023-05-25T03:01:34.146Z,65.70
2023-05-25T03:04:04.906Z,65.80
2023-05-25T03:06:55.447Z,65.80
2023-05-25T03:09:28.593Z,66.00
2023-05-25T03:12:02.856Z,66.00
2023-05-25T03:14:37.651Z,65.80
2023-05-25T03:17:35.021Z,65.70
2023-05-25T03:20:27.510Z,66.00
2023-05-25T03:23:03.724Z,66.00
2023-05-25T03:25:47.282Z,66.10
2023-05-25T03:28:24.684Z,66.10
2023-05-25T03:31:04.615Z,66.20
2023-05-25T03:33:39.388Z,66.20
2023-05-25T03:36:17.146Z,66.40
2023-05-25T03:38:50.923Z,66.50
2023-05-25T03:41:34.465Z,66.50
2023-05-25T03:44:13.222Z,66.40
2023-05-25T03:46:48.051Z,66.50
2023-05-25T03:49:24.762Z,66.50
2023-05-25T03:52:01.736Z,66.60
2023-05-25T03:54:33.468Z,66.60
2023-05-25T03:57:03.945Z,66.60
2023-05-25T03:59:49.700Z,66.60
2023-05-25T04:02:24.665Z,66.80
2023-05-25T04:04:55.894Z,66.80
2023-05-25T04:07:30.473Z,66.80
2023-05-25T04:10:01.733Z,66.70
2023-05-25T04:12:34.746Z,66.70
2023-05-25T04:15:27.166Z,66.80
2023-05-25T04:18:17.289Z,66.90
2023-05-25T04:20:57.216Z,67.00
2023-05-25T04:23:29.267Z,67.00
2023-05-25T04:26:12.878Z,66.90
2023-05-25T04:28:44.685Z,66.90
2023-05-25T04:31:32.575Z,67.00
2023-05-25T04:34:24.101Z,67.20
2023-05-25T04:37:07.674Z,67.10
2023-05-25T04:39:39.004Z,67.10
2023-05-25T04:42:15.724Z,67.30
2023-05-25T04:44:49.968Z,67.10
2023-05-25T04:47:24.588Z,67.20
2023-05-25T04:50:01.780Z,67.30
2023-05-25T04:52:45.375Z,67.40
2023-05-25T04:55:16.018Z,67.40
2023-05-25T04:57:56.420Z,67.20
2023-05-25T05:00:27.112Z,67.00
2023-05-25T05:03:15.563Z,66.90
2023-05-25T05:05:51.844Z,67.00
2023-05-25T05:08:34.628Z,67.00
2023-05-25T05:11:11.505Z,67.00
2023-05-25T05:13:46.522Z,67.10
2023-05-25T05:16:19.734Z,67.10
2023-05-25T05:19:04.065Z,67.00
2023-05-25T05:21:36.605Z,67.00
2023-05-25T05:24:14.391Z,67.30
2023-05-25T05:26:58.405Z,67.80
2023-05-25T05:29:53.242Z,67.30
2023-05-25T05:32:26.527Z,65.50
2023-05-25T05:35:14.121Z,63.90
2023-05-25T05:37:54.863Z,62.70
2023-05-25T05:40:29.034Z,61.20
2023-05-25T05:43:03.352Z,59.90
2023-05-25T05:45:36.545Z,59.50
2023-05-25T05:48:12.986Z,59.40
2023-05-25T05:51:01.078Z,59.00
2023-05-25T05:53:36.345Z,58.20
2023-05-25T05:56:06.556Z,57.70
2023-05-25T05:58:44.752Z,57.00
2023-05-25T06:01:21.589Z,56.00
2023-05-25T06:03:54.683Z,55.20
2023-05-25T06:06:43.752Z,54.50
2023-05-25T06:09:22.731Z,53.60
2023-05-25T06:11:53.341Z,53.20
2023-05-25T06:14:27.489Z,53.00
2023-05-25T06:17:02.791Z,53.60
2023-05-25T06:19:44.361Z,54.30
2023-05-25T06:22:19.902Z,54.40
2023-05-25T06:24:53.135Z,54.40
2023-05-25T06:27:29.460Z,55.00
2023-05-25T06:30:15.223Z,55.80
2023-05-25T06:32:51.764Z,56.90
2023-05-25T06:35:29.463Z,57.90
2023-05-25T06:38:11.401Z,58.40
2023-05-25T06:40:45.438Z,59.40
2023-05-25T06:43:19.118Z,59.90
2023-05-25T06:46:19.483Z,60.30
2023-05-25T06:48:49.676Z,60.80
2023-05-25T06:51:23.530Z,61.30
2023-05-25T06:53:57.430Z,61.60
2023-05-25T06:56:34.087Z,62.00
2023-05-25T06:59:09.164Z,62.10
2023-05-25T07:01:46.167Z,62.40
2023-05-25T07:04:30.405Z,62.50
2023-05-25T07:07:04.390Z,62.80
2023-05-25T07:09:44.364Z,62.90
2023-05-25T07:12:18.166Z,62.90
2023-05-25T07:14:48.576Z,62.90
2023-05-25T07:17:28.848Z,63.10
2023-05-25T07:19:59.646Z,63.30
2023-05-25T07:22:39.307Z,63.30
2023-05-25T07:25:14.520Z,63.40
2023-05-25T07:27:48.890Z,63.40
2023-05-25T07:30:29.228Z,63.40
2023-05-25T07:33:09.760Z,63.40
2023-05-25T07:35:48.782Z,63.40
2023-05-25T07:38:27.132Z,63.60
2023-05-25T07:40:56.335Z,63.60
2023-05-25T07:43:31.474Z,63.60
2023-05-25T07:46:07.537Z,63.70
2023-05-25T07:48:43.109Z,63.60
2023-05-25T07:51:16.714Z,63.60
2023-05-25T07:53:58.309Z,63.60
2023-05-25T07:56:34.660Z,63.60
2023-05-25T07:59:09.798Z,63.60
2023-05-25T08:01:48.291Z,63.60
2023-05-25T08:04:17.292Z,63.60
2023-05-25T08:06:53.729Z,63.30
2023-05-25T08:09:25.936Z,63.50
2023-05-25T08:12:21.327Z,63.50
2023-05-25T08:14:59.689Z,63.50
2023-05-25T08:17:41.991Z,63.40
2023-05-25T08:20:18.165Z,63.30
2023-05-25T08:22:56.935Z,63.20
2023-05-25T08:25:28.603Z,63.00
2023-05-25T08:28:06.598Z,62.90
2023-05-25T08:30:41.923Z,62.90
2023-05-25T08:33:14.276Z,62.80
2023-05-25T08:35:45.139Z,62.70
2023-05-25T08:38:16.324Z,62.50
2023-05-25T08:40:53.020Z,62.40
2023-05-25T08:43:24.614Z,62.30
2023-05-25T08:45:57.332Z,62.20
2023-05-25T08:48:44.881Z,62.10
2023-05-25T08:51:17.789Z,62.10
2023-05-25T08:53:57.438Z,61.90
2023-05-25T08:56:36.914Z,62.00
2023-05-25T08:59:19.290Z,61.90
2023-05-25T09:02:02.855Z,61.70
2023-05-25T09:04:33.986Z,61.60
2023-05-25T09:07:10.529Z,61.70
2023-05-25T09:09:44.928Z,61.60
2023-05-25T09:12:23.500Z,61.60
2023-05-25T09:14:58.608Z,61.30
2023-05-25T09:17:34.144Z,61.10
2023-05-25T09:20:14.330Z,61.00
2023-05-25T09:22:45.286Z,61.00
2023-05-25T09:25:29.007Z,61.00
2023-05-25T09:28:10.216Z,60.80
2023-05-25T09:31:00.192Z,60.70
2023-05-25T09:33:33.939Z,60.80
2023-05-25T09:36:09.288Z,60.60
2023-05-25T09:38:42.887Z,60.60
2023-05-25T09:41:15.143Z,60.70
2023-05-25T09:44:02.099Z,60.40
2023-05-25T09:46:47.251Z,60.40
2023-05-25T09:49:22.470Z,60.40
2023-05-25T09:51:55.178Z,60.30
2023-05-25T09:54:39.299Z,60.40
2023-05-25T09:57:11.398Z,60.40
2023-05-25T09:59:42.662Z,60.50
2023-05-25T10:02:20.492Z,60.60
2023-05-25T10:05:00.673Z,60.50
2023-05-25T10:07:34.835Z,60.30
2023-05-25T10:10:19.216Z,60.40
2023-05-25T10:12:57.683Z,60.30
2023-05-25T10:15:29.802Z,60.20
2023-05-25T10:18:03.737Z,60.00
2023-05-25T10:20:49.060Z,59.90
2023-05-25T10:23:23.374Z,59.90
2023-05-25T10:26:01.326Z,60.10
2023-05-25T10:28:37.035Z,59.90
2023-05-25T10:31:17.984Z,59.80
2023-05-25T10:33:53.460Z,59.40
2023-05-25T10:36:32.219Z,59.30
2023-05-25T10:39:12.141Z,59.10
2023-05-25T10:41:52.693Z,59.00
2023-05-25T10:44:24.597Z,58.90
2023-05-25T10:46:56.456Z,58.80
2023-05-25T10:49:56.750Z,58.70
2023-05-25T10:52:31.638Z,58.30
2023-05-25T10:55:07.979Z,57.90
2023-05-25T10:57:40.634Z,57.90
2023-05-25T11:00:10.686Z,57.40
2023-05-25T11:03:00.805Z,57.30
2023-05-25T11:05:41.012Z,57.20
2023-05-25T11:08:20.311Z,57.10
2023-05-25T11:11:02.950Z,57.00
2023-05-25T11:13:41.533Z,56.80
2023-05-25T11:16:28.249Z,56.50
2023-05-25T11:19:02.647Z,56.50
2023-05-25T11:21:56.175Z,56.40
2023-05-25T11:24:27.600Z,56.40
2023-05-25T11:27:05.127Z,56.30
2023-05-25T11:29:39.947Z,56.20
2023-05-25T11:32:18.252Z,56.10
2023-05-25T11:34:52.812Z,55.90
2023-05-25T11:37:33.581Z,55.80
2023-05-25T11:40:16.940Z,55.70
2023-05-25T11:43:04.610Z,55.50
2023-05-25T11:45:41.169Z,55.40
2023-05-25T11:48:22.012Z,55.30
2023-05-25T11:51:09.237Z,55.10
2023-05-25T11:53:53.064Z,54.90
2023-05-25T11:56:35.652Z,54.80
2023-05-25T11:59:14.949Z,55.00
2023-05-25T12:01:48.955Z,55.00
2023-05-25T12:04:23.258Z,55.10
2023-05-25T12:07:05.483Z,54.50
2023-05-25T12:09:45.466Z,54.40
2023-05-25T12:12:18.870Z,54.60
2023-05-25T12:15:00.263Z,54.50
2023-05-25T12:17:32.145Z,54.30
2023-05-25T12:20:05.303Z,54.30
2023-05-25T12:22:40.770Z,54.10
2023-05-25T12:25:20.862Z,54.00
2023-05-25T12:28:13.241Z,53.80
2023-05-25T12:30:48.559Z,53.70
2023-05-25T12:33:25.464Z,53.90
2023-05-25T12:36:00.502Z,53.90
2023-05-25T12:38:41.235Z,53.80
2023-05-25T12:41:19.511Z,53.90
2023-05-25T12:43:58.577Z,54.00
2023-05-25T12:46:31.614Z,54.00
2023-05-25T12:49:10.549Z,53.90
2023-05-25T12:51:48.751Z,53.90
2023-05-25T12:54:18.662Z,54.00
2023-05-25T12:57:10.894Z,54.30
2023-05-25T12:59:42.827Z,54.10
2023-05-25T13:02:14.929Z,54.00
2023-05-25T13:04:47.109Z,53.90
2023-05-25T13:07:25.010Z,53.90
2023-05-25T13:10:03.983Z,53.80
2023-05-25T13:12:36.017Z,53.90
2023-05-25T13:15:12.578Z,53.70
2023-05-25T13:17:43.807Z,53.60
2023-05-25T13:20:18.384Z,53.70
2023-05-25T13:22:53.053Z,53.40
2023-05-25T13:25:25.554Z,53.40
2023-05-25T13:28:00.777Z,53.40
2023-05-25T13:30:40.605Z,53.50
2023-05-25T13:33:12.135Z,53.60
2023-05-25T13:36:00.397Z,53.30
2023-05-25T13:38:31.226Z,53.00
2023-05-25T13:41:01.005Z,53.00
2023-05-25T13:43:32.669Z,52.80
2023-05-25T13:46:10.017Z,52.60
2023-05-25T13:48:55.641Z,52.50
2023-05-25T13:51:38.837Z,52.50
2023-05-25T13:54:14.701Z,52.30
2023-05-25T13:56:44.466Z,52.20
2023-05-25T13:59:16.351Z,52.00
2023-05-25T14:01:48.500Z,51.90
2023-05-25T14:04:25.076Z,52.00
2023-05-25T14:06:57.073Z,52.10
2023-05-25T14:09:31.662Z,51.90
2023-05-25T14:12:12.421Z,51.60
2023-05-25T14:14:52.520Z,51.30
2023-05-25T14:17:27.564Z,51.00
2023-05-25T14:20:03.260Z,50.80
2023-05-25T14:22:34.565Z,50.70
2023-05-25T14:25:04.486Z,50.80
2023-05-25T14:27:36.816Z,50.60
2023-05-25T14:30:12.919Z,50.50
2023-05-25T14:32:45.612Z,50.50
2023-05-25T14:35:26.654Z,50.50
2023-05-25T14:38:02.025Z,50.40
2023-05-25T14:40:39.012Z,50.40
2023-05-25T14:43:11.012Z,50.50
2023-05-25T14:45:43.273Z,50.60
2023-05-25T14:48:29.847Z,50.50
2023-05-25T14:51:14.439Z,50.40
2023-05-25T14:53:47.263Z,50.40
2023-05-25T14:56:22.230Z,50.20
2023-05-25T14:58:57.178Z,50.20
2023-05-25T15:01:30.682Z,50.20
2023-05-25T15:04:02.495Z,50.20
2023-05-25T15:06:35.277Z,50.40
2023-05-25T15:09:07.452Z,49.90
2023-05-25T15:11:43.262Z,49.40
2023-05-25T15:14:18.338Z,49.00
2023-05-25T15:16:56.654Z,49.00
2023-05-25T15:19:25.086Z,49.00
2023-05-25T15:21:59.329Z,49.10
2023-05-25T15:24:31.879Z,49.00
2023-05-25T15:27:00.361Z,49.30
2023-05-25T15:29:35.636Z,49.40
2023-05-25T15:32:22.200Z,49.50
2023-05-25T15:35:01.296Z,49.30
2023-05-25T15:37:44.115Z,49.20
2023-05-25T15:40:24.767Z,49.10
2023-05-25T15:43:01.821Z,49.10
2023-05-25T15:45:32.876Z,48.90
2023-05-25T15:48:21.478Z,49.10
2023-05-25T15:50:52.325Z,48.90
2023-05-25T15:53:34.808Z,49.00
2023-05-25T15:56:12.439Z,48.90
2023-05-25T15:58:50.856Z,48.70
2023-05-25T16:01:21.379Z,48.50
2023-05-25T16:03:58.584Z,48.40
2023-05-25T16:06:37.375Z,48.20
2023-05-25T16:09:08.825Z,48.20
2023-05-25T16:11:48.138Z,48.10
2023-05-25T16:14:24.020Z,48.00
2023-05-25T16:16:56.865Z,48.00
2023-05-25T16:19:28.722Z,48.00
2023-05-25T16:22:04.823Z,48.00
2023-05-25T16:24:38.096Z,47.90
2023-05-25T16:27:23.259Z,47.70
2023-05-25T16:29:56.954Z,47.40
2023-05-25T16:32:34.683Z,47.50
2023-05-25T16:35:11.180Z,47.60
2023-05-25T16:37:44.877Z,47.40
2023-05-25T16:40:15.688Z,47.40
2023-05-25T16:42:52.491Z,47.40
2023-05-25T16:45:32.447Z,47.30
2023-05-25T16:48:03.462Z,47.40
2023-05-25T16:50:40.414Z,47.70
2023-05-25T16:53:20.048Z,47.70
2023-05-25T16:55:53.895Z,47.70
2023-05-25T16:58:28.436Z,47.70
2023-05-25T17:01:03.141Z,47.70
2023-05-25T17:03:34.598Z,47.60
2023-05-25T17:06:07.298Z,47.50
2023-05-25T17:08:44.428Z,47.50
2023-05-25T17:11:26.698Z,47.60
2023-05-25T17:14:04.724Z,47.70
2023-05-25T17:16:43.988Z,47.80
2023-05-25T17:19:18.122Z,48.00
2023-05-25T17:21:56.817Z,48.00
2023-05-25T17:24:31.310Z,47.70
2023-05-25T17:27:03.837Z,47.70
2023-05-25T17:29:32.556Z,47.80
2023-05-25T17:32:10.453Z,47.90
2023-05-25T17:34:49.299Z,48.20
2023-05-25T17:37:32.685Z,48.50
2023-05-25T17:40:00.999Z,48.60
2023-05-25T17:42:32.826Z,48.80
2023-05-25T17:45:05.391Z,48.80
2023-05-25T17:47:35.622Z,48.80
2023-05-25T17:50:15.811Z,48.90
2023-05-25T17:52:55.259Z,48.80
2023-05-25T17:55:31.843Z,48.80
2023-05-25T17:58:01.045Z,48.90
2023-05-25T18:00:34.336Z,49.00
2023-05-25T18:03:04.483Z,49.00
2023-05-25T18:05:39.180Z,49.00
2023-05-25T18:08:13.659Z,49.10
2023-05-25T18:10:45.969Z,49.20
2023-05-25T18:13:17.378Z,49.30
2023-05-25T18:15:50.623Z,49.40
2023-05-25T18:18:25.919Z,49.60
2023-05-25T18:20:54.862Z,49.70
2023-05-25T18:23:30.702Z,49.80
2023-05-25T18:26:04.278Z,49.90
2023-05-25T18:28:44.661Z,49.90
2023-05-25T18:31:18.264Z,50.00
2023-05-25T18:33:51.441Z,50.10
2023-05-25T18:36:23.413Z,50.20
2023-05-25T18:38:59.299Z,50.40
2023-05-25T18:41:32.671Z,50.50
2023-05-25T18:44:04.387Z,50.70
2023-05-25T18:46:34.770Z,50.70
2023-05-25T18:49:09.327Z,50.80
2023-05-25T18:51:43.024Z,51.00
2023-05-25T18:54:20.454Z,51.20
2023-05-25T18:56:55.160Z,51.20
2023-05-25T18:59:36.812Z,51.30
2023-05-25T19:02:07.137Z,51.50
2023-05-25T19:04:43.339Z,51.70
2023-05-25T19:07:17.388Z,51.80
2023-05-25T19:09:54.219Z,51.90
2023-05-25T19:12:27.671Z,52.10
2023-05-25T19:15:05.098Z,52.20
2023-05-25T19:17:42.557Z,52.40
2023-05-25T19:20:17.469Z,52.50
2023-05-25T19:22:52.372Z,52.70
2023-05-25T19:25:33.261Z,52.80
2023-05-25T19:28:04.596Z,52.90
2023-05-25T19:30:38.524Z,53.30
2023-05-25T19:33:16.278Z,53.40
2023-05-25T19:35:50.126Z,53.50
2023-05-25T19:38:34.290Z,53.60
2023-05-25T19:41:19.093Z,53.80
2023-05-25T19:43:58.295Z,54.00
2023-05-25T19:46:35.372Z,54.00
2023-05-25T19:49:10.441Z,54.20
2023-05-25T19:51:40.842Z,54.30
2023-05-25T19:54:19.980Z,54.40
2023-05-25T19:56:59.518Z,54.60
2023-05-25T19:59:38.541Z,54.90
2023-05-25T20:02:11.987Z,55.10
2023-05-25T20:04:45.690Z,55.20
2023-05-25T20:07:20.068Z,55.40
2023-05-25T20:09:54.093Z,55.60
2023-05-25T20:12:34.283Z,55.80
2023-05-25T20:15:07.641Z,56.00
2023-05-25T20:17:52.547Z,56.00
2023-05-25T20:20:30.321Z,56.20
2023-05-25T20:23:13.193Z,56.40
2023-05-25T20:25:48.261Z,56.50
2023-05-25T20:28:27.538Z,56.60
2023-05-25T20:31:06.609Z,56.80
2023-05-25T20:33:41.714Z,56.80
2023-05-25T20:36:15.951Z,57.00
2023-05-25T20:38:50.395Z,57.10
2023-05-25T20:41:27.049Z,57.20
2023-05-25T20:44:09.634Z,57.30
2023-05-25T20:46:42.232Z,57.50
2023-05-25T20:49:15.038Z,57.60
2023-05-25T20:51:51.052Z,57.70
2023-05-25T20:54:24.794Z,57.90
2023-05-25T20:57:03.697Z,57.90
2023-05-25T20:59:41.683Z,58.20
2023-05-25T21:02:13.062Z,58.30
2023-05-25T21:04:43.892Z,58.40
2023-05-25T21:07:21.675Z,58.60
2023-05-25T21:09:59.566Z,58.80
2023-05-25T21:12:31.238Z,58.90
2023-05-25T21:15:14.623Z,59.00
2023-05-25T21:17:45.435Z,59.10
2023-05-25T21:20:18.923Z,59.20
2023-05-25T21:22:51.863Z,59.30
2023-05-25T21:25:26.372Z,59.30
2023-05-25T21:27:57.301Z,59.40
2023-05-25T21:30:37.761Z,59.50
2023-05-25T21:33:09.223Z,59.60
2023-05-25T21:35:43.497Z,59.60
2023-05-25T21:38:21.689Z,59.70
2023-05-25T21:41:01.642Z,59.80
2023-05-25T21:46:25.149Z,59.90
2023-05-25T21:49:02.148Z,60.00
2023-05-25T21:51:32.972Z,60.00
2023-05-25T21:54:06.631Z,60.10
2023-05-25T21:56:44.901Z,60.20
2023-05-25T21:59:19.162Z,60.40
2023-05-25T22:01:53.673Z,60.50
2023-05-25T22:04:34.094Z,60.60
2023-05-25T22:07:04.591Z,60.60
2023-05-25T22:09:43.760Z,60.70
2023-05-25T22:12:20.837Z,60.80
2023-05-25T22:14:58.490Z,60.80
2023-05-25T22:17:42.439Z,60.90
2023-05-25T22:20:18.942Z,61.00
2023-05-25T22:22:59.322Z,61.10
2023-05-25T22:25:39.689Z,61.10
2023-05-25T22:28:18.923Z,61.20
2023-05-25T22:30:56.907Z,61.30
2023-05-25T22:33:32.705Z,61.40
2023-05-25T22:36:03.835Z,61.40
2023-05-25T22:38:43.345Z,61.50
2023-05-25T22:41:20.368Z,61.60
2023-05-25T22:44:05.197Z,61.70
2023-05-25T22:46:42.984Z,61.80
2023-05-25T22:49:20.891Z,62.00
2023-05-25T22:52:01.299Z,62.10
2023-05-25T22:54:33.541Z,62.10
2023-05-25T22:57:06.689Z,62.20
2023-05-25T22:59:35.832Z,62.30
2023-05-25T23:02:13.298Z,62.40
2023-05-25T23:04:48.983Z,62.40
2023-05-25T23:07:23.771Z,62.60
2023-05-25T23:10:08.061Z,62.70
2023-05-25T23:12:37.760Z,62.80
2023-05-25T23:15:16.719Z,62.90
2023-05-25T23:17:48.872Z,63.00
2023-05-25T23:20:27.539Z,63.00
2023-05-25T23:23:08.128Z,63.10
2023-05-25T23:25:42.117Z,63.40
2023-05-25T23:28:22.230Z,63.40
2023-05-25T23:30:56.392Z,63.60
2023-05-25T23:33:29.237Z,63.70
2023-05-25T23:36:05.980Z,63.90
2023-05-25T23:38:39.250Z,64.00
2023-05-25T23:41:12.510Z,64.00
2023-05-25T23:43:47.855Z,64.10
2023-05-25T23:46:20.029Z,64.10
2023-05-25T23:48:53.712Z,64.20
2023-05-25T23:51:24.877Z,64.40
2023-05-25T23:53:56.513Z,64.70
2023-05-25T23:56:32.307Z,64.70
2023-05-25T23:59:06.571Z,64.80
